CW6020 Teulada ES current weather conditions

sailwx.info

Wind from 090

Air temperature 15.6° C
Dewpoint 8.5° C

Last reported at 2014-Oct-26 01:00 UTC.
Time now 2014-Oct-26 02:56 UTC

Location: N 38°44' E 000°06'.
View on Google Maps.

See reports from other nearby stations

  
Tides and Currents Weather Stations Pressure Air Temp Water Temp Dewpoint Dewpoint Depression Visibility Wind Speed Wind Dir Waves Ship Positions
date/time (UTC)wind fromknots sea level pressurealtimeterstation pressurevisibilityair tempwater tempwave heightnotes
2014-Oct-26 01:00 090 15.6
2014-Oct-26 00:40 090 1 gusting 1 15.0
2014-Oct-26 00:30 090 1 gusting 2 15.0
2014-Oct-26 00:20 165 0 gusting 1 15.6
2014-Oct-26 00:10 090 15.6
2014-Oct-25 23:30 075 0 gusting 1 16.7
2014-Oct-25 23:20 060 1 gusting 2 16.7
2014-Oct-25 23:10 045 0 gusting 1 16.7
2014-Oct-25 22:40 135 0 gusting 1 16.7
2014-Oct-25 22:30 135 17.2
2014-Oct-25 22:00 060 17.8
2014-Oct-25 21:50 315 0 gusting 1 17.2
2014-Oct-25 21:30 150 16.7
2014-Oct-25 21:20 195 16.7
2014-Oct-25 21:10 180 16.7
2014-Oct-25 20:50 120 17.2
2014-Oct-25 20:20 090 17.2
2014-Oct-25 20:10 090 17.2
2014-Oct-25 20:00 135 17.2
2014-Oct-25 19:50 180 17.2
2014-Oct-25 19:40 195 0 gusting 1 17.8
2014-Oct-25 19:30 165 0 gusting 1 17.8
2014-Oct-25 19:10 210 1 gusting 1 18.3
2014-Oct-25 18:50 195 18.9
2014-Oct-25 18:20 195 0 gusting 1 20.0
2014-Oct-25 17:20 180 22.2
2014-Oct-25 17:10 195 22.8
2014-Oct-25 16:40 210 1 gusting 2 23.9
2014-Oct-25 16:30 195 1 gusting 2 24.4
2014-Oct-25 16:20 195 2 gusting 3 25.0
2014-Oct-25 16:10 180 2 gusting 3 25.6
2014-Oct-25 16:00 180 4 gusting 5 26.1
2014-Oct-25 15:40 150 3 gusting 4 27.2
2014-Oct-25 15:20 150 1 gusting 2 27.8
2014-Oct-25 15:10 180 3 gusting 6 28.9
2014-Oct-25 14:40 135 2 gusting 4 27.8
2014-Oct-25 14:20 165 3 gusting 4 29.4
2014-Oct-25 14:10 135 2 gusting 5 30.0
2014-Oct-25 14:00 165 3 gusting 5 30.0
2014-Oct-25 13:30 150 3 gusting 6 30.6
2014-Oct-25 13:10 150 3 gusting 6 31.7
2014-Oct-25 12:00 210 5 gusting 7 32.2
2014-Oct-25 11:51 195 4 gusting 6 32.2
2014-Oct-25 11:30 135 3 gusting 6 32.2
2014-Oct-25 11:20 150 4 gusting 7 32.2
2014-Oct-25 11:10 165 1 gusting 3 31.7
2014-Oct-25 11:00 150 3 gusting 6 31.7
2014-Oct-25 10:40 150 1 gusting 3 30.6
2014-Oct-25 10:30 165 1 gusting 2 30.6
2014-Oct-25 10:20 165 3 gusting 5 30.6
2014-Oct-25 10:10 165 1 gusting 3 30.0
2014-Oct-25 10:00 165 1 gusting 1 30.0
2014-Oct-25 09:50 165 1 gusting 2 30.0
2014-Oct-25 09:40 165 1 gusting 2 29.4
2014-Oct-25 09:30 180 0 gusting 1 28.3
2014-Oct-25 09:20 180 0 gusting 1 27.2
2014-Oct-25 09:00 180 25.6
2014-Oct-25 08:40 135 23.3
2014-Oct-25 08:30 165 1 gusting 1 22.2
2014-Oct-25 08:20 180 21.1
2014-Oct-25 08:10 180 0 gusting 1 20.0
2014-Oct-25 08:00 165 0 gusting 1 19.4
2014-Oct-25 07:50 135 1 gusting 3 17.8
2014-Oct-25 07:40 105 16.7
2014-Oct-25 07:30 090 16.1
2014-Oct-25 07:20 120 15.0
2014-Oct-25 07:10 120 0 gusting 1 14.4
2014-Oct-25 07:00 105 0 gusting 1 13.9
2014-Oct-25 06:50 090 1 gusting 1 13.3
2014-Oct-25 06:10 090 13.3
2014-Oct-25 06:00 075 13.3
2014-Oct-25 05:50 090 0 gusting 1 13.3
2014-Oct-25 05:40 090 13.3
2014-Oct-25 05:30 090 13.3
2014-Oct-25 05:20 090 1 gusting 1 12.8
2014-Oct-25 05:00 090 0 gusting 1 12.8
2014-Oct-25 04:50 090 0 gusting 1 12.8
2014-Oct-25 04:20 105 13.3
2014-Oct-25 04:10 090 1 gusting 1 13.3
2014-Oct-25 04:00 090 13.3
2014-Oct-25 03:50 090 12.8
2014-Oct-25 03:30 060 12.8
2014-Oct-25 03:20 135 0 gusting 1 12.8
2014-Oct-25 03:10 120 13.3
2014-Oct-25 03:00 090 13.3
2014-Oct-25 02:40 090 13.3
2014-Oct-25 02:20 090 13.3
2014-Oct-25 02:00 105 13.3
2014-Oct-25 01:50 135 0 gusting 1 13.3
2014-Oct-25 01:40 135 13.3
2014-Oct-25 01:20 135 13.9
2014-Oct-25 01:10 135 13.9
2014-Oct-25 01:00 135 13.9
2014-Oct-25 00:50 135 14.4
2014-Oct-25 00:40 135 14.4
2014-Oct-25 00:30 135 14.4
2014-Oct-25 00:20 105 1 gusting 1 14.4
2014-Oct-25 00:10 120 13.9
2014-Oct-25 00:00 180 13.9
2014-Oct-24 23:30 090 15.0
2014-Oct-24 22:50 105 15.0
2014-Oct-24 21:50 135 14.4
2014-Oct-24 21:40 150 14.4
2014-Oct-24 21:10 112 15.0
2014-Oct-24 21:00 150 15.0
2014-Oct-24 20:50 135 15.0
2014-Oct-24 20:30 165 15.6
2014-Oct-24 20:20 165 15.6
2014-Oct-24 20:01 150 16.1
2014-Oct-24 19:50 135 16.1
2014-Oct-24 19:40 225 16.1
2014-Oct-24 19:20 135 16.7
2014-Oct-24 19:00 165 17.8
2014-Oct-24 18:50 180 17.8
2014-Oct-24 18:40 180 18.3
2014-Oct-24 18:20 315 19.4
2014-Oct-24 17:50 180 20.0
2014-Oct-24 17:30 180 21.1
2014-Oct-24 17:10 150 21.7
2014-Oct-24 16:40 165 2 gusting 3 23.3
2014-Oct-24 16:30 150 1 gusting 2 23.9
2014-Oct-24 16:20 180 3 gusting 3 24.4
2014-Oct-24 15:30 150 4 gusting 6 26.7
2014-Oct-24 15:20 165 3 gusting 5 26.7
2014-Oct-24 15:10 180 3 gusting 5 27.2
2014-Oct-24 14:50 195 4 gusting 6 27.8
2014-Oct-24 14:10 180 3 gusting 6 28.9
2014-Oct-24 14:00 180 4 gusting 6 28.9
2014-Oct-24 13:40 120 2 gusting 4 29.4
2014-Oct-24 13:30 180 3 gusting 5 29.4
2014-Oct-24 13:20 150 4 gusting 9 30.0
2014-Oct-24 13:10 135 3 gusting 6 30.0
2014-Oct-24 13:00 135 2 gusting 3 30.0
2014-Oct-24 12:50 150 2 gusting 4 30.6
2014-Oct-24 12:40 165 2 gusting 4 30.6
2014-Oct-24 12:30 150 3 gusting 6 31.1
2014-Oct-24 12:20 120 1 gusting 3 31.7
2014-Oct-24 12:10 105 4 gusting 6 31.1
2014-Oct-24 11:50 142 3 gusting 6 31.1
2014-Oct-24 11:40 135 1 gusting 2 30.6
2014-Oct-24 11:30 150 3 gusting 6 30.6
2014-Oct-24 11:20 120 2 gusting 3 30.6
2014-Oct-24 11:10 135 2 gusting 3 30.6
2014-Oct-24 11:00 165 5 gusting 6 30.6
2014-Oct-24 10:40 120 2 gusting 3 30.0
2014-Oct-24 10:30 075 0 gusting 1 29.4
2014-Oct-24 10:10 135 1 gusting 1 28.9
2014-Oct-24 10:00 105 1 gusting 3 28.3
2014-Oct-24 09:50 165 0 gusting 1 27.8
2014-Oct-24 09:40 255 1 gusting 3 26.7
2014-Oct-24 09:10 255 1 gusting 1 25.6
2014-Oct-24 09:00 270 2 gusting 3 25.6
2014-Oct-24 08:30 015 0 gusting 1 23.9
2014-Oct-24 08:20 060 0 gusting 1 22.8
2014-Oct-24 07:41 135 1 gusting 1 18.3
2014-Oct-24 07:21 090 0 gusting 1 16.1
2014-Oct-24 07:01 090 0 gusting 1 15.0
2014-Oct-24 06:51 090 0 gusting 1 15.0
2014-Oct-24 06:31 075 1 gusting 2 15.0
2014-Oct-24 06:21 075 1 gusting 2 15.0
2014-Oct-24 05:41 060 15.6
2014-Oct-24 05:31 075 15.6
2014-Oct-24 05:21 090 15.6
2014-Oct-24 05:01 090 15.0
2014-Oct-24 04:51 060 15.0
2014-Oct-24 04:41 060 15.0
2014-Oct-24 04:31 075 15.0
2014-Oct-24 04:21 060 15.0
2014-Oct-24 04:01 030 14.4
2014-Oct-24 03:51 030 14.4
2014-Oct-24 03:41 075 14.4
2014-Oct-24 03:21 090 14.4
2014-Oct-24 03:01 075 13.3
2014-Oct-24 02:41 150 12.8
2014-Oct-24 02:31 105 12.8
2014-Oct-24 02:21 105 12.2
2014-Oct-24 02:11 120 12.8
2014-Oct-24 02:01 135 12.8